sensor_id;sensor_type;location;lat;lon;timestamp;P1;durP1;ratioP1;P2;durP2;ratioP2
14268;SDS011;7218;51.480;7.006;2023-11-21T00:00:40;15.25;;;9.52;;
14268;SDS011;7218;51.480;7.006;2023-11-21T00:03:06;15.35;;;9.45;;
14268;SDS011;7218;51.480;7.006;2023-11-21T00:05:34;14.48;;;9.65;;
14268;SDS011;7218;51.480;7.006;2023-11-21T00:08:01;14.00;;;9.38;;
14268;SDS011;7218;51.480;7.006;2023-11-21T00:10:27;20.70;;;9.68;;
14268;SDS011;7218;51.480;7.006;2023-11-21T00:12:54;16.13;;;9.57;;
14268;SDS011;7218;51.480;7.006;2023-11-21T00:15:21;17.83;;;9.40;;
14268;SDS011;7218;51.480;7.006;2023-11-21T00:17:47;13.95;;;9.00;;
14268;SDS011;7218;51.480;7.006;2023-11-21T00:20:14;15.40;;;9.57;;
14268;SDS011;7218;51.480;7.006;2023-11-21T00:22:43;15.20;;;9.48;;
14268;SDS011;7218;51.480;7.006;2023-11-21T00:25:10;17.95;;;10.10;;
14268;SDS011;7218;51.480;7.006;2023-11-21T00:27:36;21.38;;;10.15;;
14268;SDS011;7218;51.480;7.006;2023-11-21T00:30:03;17.85;;;9.80;;
14268;SDS011;7218;51.480;7.006;2023-11-21T00:32:31;19.25;;;9.85;;
14268;SDS011;7218;51.480;7.006;2023-11-21T00:34:58;18.33;;;9.35;;
14268;SDS011;7218;51.480;7.006;2023-11-21T00:37:25;15.07;;;9.07;;
14268;SDS011;7218;51.480;7.006;2023-11-21T00:39:53;15.57;;;8.70;;
14268;SDS011;7218;51.480;7.006;2023-11-21T00:42:19;14.63;;;8.80;;
14268;SDS011;7218;51.480;7.006;2023-11-21T00:44:47;13.00;;;8.75;;
14268;SDS011;7218;51.480;7.006;2023-11-21T00:47:14;12.88;;;7.90;;
14268;SDS011;7218;51.480;7.006;2023-11-21T00:49:41;12.75;;;8.75;;
14268;SDS011;7218;51.480;7.006;2023-11-21T00:52:09;15.05;;;8.52;;
14268;SDS011;7218;51.480;7.006;2023-11-21T00:54:35;19.55;;;9.10;;
14268;SDS011;7218;51.480;7.006;2023-11-21T00:57:03;15.77;;;8.35;;
14268;SDS011;7218;51.480;7.006;2023-11-21T00:59:30;14.90;;;8.32;;
14268;SDS011;7218;51.480;7.006;2023-11-21T01:01:56;13.25;;;7.97;;
14268;SDS011;7218;51.480;7.006;2023-11-21T01:04:25;15.55;;;8.30;;
14268;SDS011;7218;51.480;7.006;2023-11-21T01:06:51;15.30;;;8.45;;
14268;SDS011;7218;51.480;7.006;2023-11-21T01:09:18;14.75;;;8.70;;
14268;SDS011;7218;51.480;7.006;2023-11-21T01:11:44;18.48;;;9.35;;
14268;SDS011;7218;51.480;7.006;2023-11-21T01:14:12;17.45;;;9.10;;
14268;SDS011;7218;51.480;7.006;2023-11-21T01:16:39;16.27;;;8.80;;
14268;SDS011;7218;51.480;7.006;2023-11-21T01:19:06;15.38;;;9.27;;
14268;SDS011;7218;51.480;7.006;2023-11-21T01:21:32;16.40;;;8.38;;
14268;SDS011;7218;51.480;7.006;2023-11-21T01:23:59;16.75;;;9.07;;
14268;SDS011;7218;51.480;7.006;2023-11-21T01:26:25;18.83;;;8.82;;
14268;SDS011;7218;51.480;7.006;2023-11-21T01:28:52;16.52;;;8.82;;
14268;SDS011;7218;51.480;7.006;2023-11-21T01:31:19;19.40;;;9.30;;
14268;SDS011;7218;51.480;7.006;2023-11-21T01:33:46;19.08;;;9.50;;
14268;SDS011;7218;51.480;7.006;2023-11-21T01:36:13;17.02;;;9.45;;
14268;SDS011;7218;51.480;7.006;2023-11-21T01:38:40;16.15;;;8.77;;
14268;SDS011;7218;51.480;7.006;2023-11-21T01:41:07;16.70;;;9.15;;
14268;SDS011;7218;51.480;7.006;2023-11-21T01:43:36;14.30;;;9.23;;
14268;SDS011;7218;51.480;7.006;2023-11-21T01:46:02;17.23;;;9.40;;
14268;SDS011;7218;51.480;7.006;2023-11-21T01:48:32;15.88;;;9.15;;
14268;SDS011;7218;51.480;7.006;2023-11-21T01:50:59;20.38;;;9.18;;
14268;SDS011;7218;51.480;7.006;2023-11-21T01:53:26;14.80;;;8.63;;
14268;SDS011;7218;51.480;7.006;2023-11-21T01:55:53;19.52;;;8.80;;
14268;SDS011;7218;51.480;7.006;2023-11-21T01:58:22;14.80;;;8.70;;
14268;SDS011;7218;51.480;7.006;2023-11-21T02:00:49;16.00;;;8.95;;
14268;SDS011;7218;51.480;7.006;2023-11-21T02:03:15;16.27;;;8.63;;
14268;SDS011;7218;51.480;7.006;2023-11-21T02:05:44;16.38;;;9.00;;
14268;SDS011;7218;51.480;7.006;2023-11-21T02:08:10;13.60;;;8.48;;
14268;SDS011;7218;51.480;7.006;2023-11-21T02:10:36;18.30;;;9.23;;
14268;SDS011;7218;51.480;7.006;2023-11-21T02:13:03;14.77;;;8.15;;
14268;SDS011;7218;51.480;7.006;2023-11-21T02:15:31;18.13;;;8.45;;
14268;SDS011;7218;51.480;7.006;2023-11-21T02:17:58;14.80;;;8.70;;
14268;SDS011;7218;51.480;7.006;2023-11-21T02:20:25;16.83;;;8.70;;
14268;SDS011;7218;51.480;7.006;2023-11-21T02:22:55;17.17;;;8.73;;
14268;SDS011;7218;51.480;7.006;2023-11-21T02:25:24;18.85;;;9.20;;
14268;SDS011;7218;51.480;7.006;2023-11-21T02:27:51;21.15;;;9.10;;
14268;SDS011;7218;51.480;7.006;2023-11-21T02:30:19;14.82;;;9.30;;
14268;SDS011;7218;51.480;7.006;2023-11-21T02:32:46;15.95;;;9.07;;
14268;SDS011;7218;51.480;7.006;2023-11-21T02:35:13;14.82;;;8.43;;
14268;SDS011;7218;51.480;7.006;2023-11-21T02:37:40;19.30;;;9.13;;
14268;SDS011;7218;51.480;7.006;2023-11-21T02:40:09;17.73;;;9.10;;
14268;SDS011;7218;51.480;7.006;2023-11-21T02:42:37;12.52;;;8.63;;
14268;SDS011;7218;51.480;7.006;2023-11-21T02:45:04;19.42;;;9.82;;
14268;SDS011;7218;51.480;7.006;2023-11-21T02:47:32;18.10;;;10.20;;
14268;SDS011;7218;51.480;7.006;2023-11-21T02:49:59;17.40;;;10.32;;
14268;SDS011;7218;51.480;7.006;2023-11-21T02:52:25;20.20;;;9.85;;
14268;SDS011;7218;51.480;7.006;2023-11-21T02:54:52;17.98;;;10.23;;
14268;SDS011;7218;51.480;7.006;2023-11-21T02:57:19;19.63;;;9.77;;
14268;SDS011;7218;51.480;7.006;2023-11-21T02:59:46;17.48;;;9.73;;
14268;SDS011;7218;51.480;7.006;2023-11-21T03:02:12;18.05;;;9.77;;
14268;SDS011;7218;51.480;7.006;2023-11-21T03:04:40;17.52;;;9.80;;
14268;SDS011;7218;51.480;7.006;2023-11-21T03:07:07;15.32;;;9.40;;
14268;SDS011;7218;51.480;7.006;2023-11-21T03:09:34;19.10;;;9.45;;
14268;SDS011;7218;51.480;7.006;2023-11-21T03:12:01;15.98;;;9.70;;
14268;SDS011;7218;51.480;7.006;2023-11-21T03:14:28;18.33;;;10.48;;
14268;SDS011;7218;51.480;7.006;2023-11-21T03:16:55;21.38;;;10.25;;
14268;SDS011;7218;51.480;7.006;2023-11-21T03:19:21;20.85;;;10.07;;
14268;SDS011;7218;51.480;7.006;2023-11-21T03:21:48;18.23;;;9.35;;
14268;SDS011;7218;51.480;7.006;2023-11-21T03:24:15;20.98;;;9.77;;
14268;SDS011;7218;51.480;7.006;2023-11-21T03:26:44;16.48;;;9.85;;
14268;SDS011;7218;51.480;7.006;2023-11-21T03:29:11;15.90;;;9.40;;
14268;SDS011;7218;51.480;7.006;2023-11-21T03:31:39;19.23;;;10.07;;
14268;SDS011;7218;51.480;7.006;2023-11-21T03:34:06;14.02;;;9.43;;
14268;SDS011;7218;51.480;7.006;2023-11-21T03:36:33;17.40;;;9.80;;
14268;SDS011;7218;51.480;7.006;2023-11-21T03:38:59;16.60;;;9.45;;
14268;SDS011;7218;51.480;7.006;2023-11-21T03:41:25;15.75;;;9.60;;
14268;SDS011;7218;51.480;7.006;2023-11-21T03:43:52;18.85;;;10.32;;
14268;SDS011;7218;51.480;7.006;2023-11-21T03:46:18;18.90;;;9.60;;
14268;SDS011;7218;51.480;7.006;2023-11-21T03:48:46;15.40;;;10.45;;
14268;SDS011;7218;51.480;7.006;2023-11-21T03:51:13;17.58;;;10.50;;
14268;SDS011;7218;51.480;7.006;2023-11-21T03:53:39;16.80;;;9.52;;
14268;SDS011;7218;51.480;7.006;2023-11-21T03:56:06;17.10;;;9.68;;
14268;SDS011;7218;51.480;7.006;2023-11-21T03:58:33;17.95;;;10.13;;
14268;SDS011;7218;51.480;7.006;2023-11-21T04:00:59;16.05;;;9.65;;
14268;SDS011;7218;51.480;7.006;2023-11-21T04:03:26;16.98;;;9.80;;
14268;SDS011;7218;51.480;7.006;2023-11-21T04:05:54;19.80;;;9.57;;
14268;SDS011;7218;51.480;7.006;2023-11-21T04:08:21;15.20;;;9.63;;
14268;SDS011;7218;51.480;7.006;2023-11-21T04:10:47;14.77;;;9.75;;
14268;SDS011;7218;51.480;7.006;2023-11-21T04:13:13;14.70;;;8.93;;
14268;SDS011;7218;51.480;7.006;2023-11-21T04:15:40;16.52;;;10.00;;
14268;SDS011;7218;51.480;7.006;2023-11-21T04:18:06;17.02;;;9.63;;
14268;SDS011;7218;51.480;7.006;2023-11-21T04:20:33;13.65;;;9.13;;
14268;SDS011;7218;51.480;7.006;2023-11-21T04:23:01;17.92;;;10.23;;
14268;SDS011;7218;51.480;7.006;2023-11-21T04:25:28;19.65;;;9.93;;
14268;SDS011;7218;51.480;7.006;2023-11-21T04:27:54;17.63;;;9.63;;
14268;SDS011;7218;51.480;7.006;2023-11-21T04:30:21;16.85;;;10.88;;
14268;SDS011;7218;51.480;7.006;2023-11-21T04:32:47;16.83;;;10.63;;
14268;SDS011;7218;51.480;7.006;2023-11-21T04:35:14;17.65;;;9.85;;
14268;SDS011;7218;51.480;7.006;2023-11-21T04:37:40;16.27;;;10.45;;
14268;SDS011;7218;51.480;7.006;2023-11-21T04:40:09;18.88;;;9.85;;
14268;SDS011;7218;51.480;7.006;2023-11-21T04:42:36;20.67;;;9.75;;
14268;SDS011;7218;51.480;7.006;2023-11-21T04:45:03;21.20;;;10.68;;
14268;SDS011;7218;51.480;7.006;2023-11-21T04:47:33;19.80;;;10.63;;
14268;SDS011;7218;51.480;7.006;2023-11-21T04:50:00;20.15;;;10.73;;
14268;SDS011;7218;51.480;7.006;2023-11-21T04:52:27;19.40;;;10.38;;
14268;SDS011;7218;51.480;7.006;2023-11-21T04:54:53;16.13;;;10.10;;
14268;SDS011;7218;51.480;7.006;2023-11-21T04:57:22;17.50;;;10.23;;
14268;SDS011;7218;51.480;7.006;2023-11-21T04:59:49;17.10;;;10.65;;
14268;SDS011;7218;51.480;7.006;2023-11-21T05:02:15;19.20;;;11.10;;
14268;SDS011;7218;51.480;7.006;2023-11-21T05:04:43;22.20;;;11.48;;
14268;SDS011;7218;51.480;7.006;2023-11-21T05:07:10;14.90;;;10.63;;
14268;SDS011;7218;51.480;7.006;2023-11-21T05:09:37;16.67;;;11.05;;
14268;SDS011;7218;51.480;7.006;2023-11-21T05:12:08;19.92;;;10.68;;
14268;SDS011;7218;51.480;7.006;2023-11-21T05:14:36;18.05;;;10.55;;
14268;SDS011;7218;51.480;7.006;2023-11-21T05:17:03;17.40;;;11.18;;
14268;SDS011;7218;51.480;7.006;2023-11-21T05:19:30;21.70;;;12.07;;
14268;SDS011;7218;51.480;7.006;2023-11-21T05:21:57;18.02;;;10.70;;
14268;SDS011;7218;51.480;7.006;2023-11-21T05:24:24;22.05;;;11.93;;
14268;SDS011;7218;51.480;7.006;2023-11-21T05:26:51;21.40;;;11.50;;
14268;SDS011;7218;51.480;7.006;2023-11-21T05:29:17;22.02;;;11.52;;
14268;SDS011;7218;51.480;7.006;2023-11-21T05:31:45;20.60;;;11.70;;
14268;SDS011;7218;51.480;7.006;2023-11-21T05:34:12;23.52;;;12.23;;
14268;SDS011;7218;51.480;7.006;2023-11-21T05:36:38;21.30;;;12.55;;
14268;SDS011;7218;51.480;7.006;2023-11-21T05:39:05;27.10;;;12.27;;
14268;SDS011;7218;51.480;7.006;2023-11-21T05:41:31;22.92;;;12.25;;
14268;SDS011;7218;51.480;7.006;2023-11-21T05:43:57;23.13;;;12.57;;
14268;SDS011;7218;51.480;7.006;2023-11-21T05:46:24;22.25;;;12.30;;
14268;SDS011;7218;51.480;7.006;2023-11-21T05:48:52;23.40;;;11.80;;
14268;SDS011;7218;51.480;7.006;2023-11-21T05:51:18;21.15;;;12.02;;
14268;SDS011;7218;51.480;7.006;2023-11-21T05:53:45;24.13;;;13.10;;
14268;SDS011;7218;51.480;7.006;2023-11-21T05:56:11;23.42;;;13.32;;
14268;SDS011;7218;51.480;7.006;2023-11-21T05:58:38;24.55;;;13.05;;
14268;SDS011;7218;51.480;7.006;2023-11-21T06:01:05;24.08;;;13.68;;
14268;SDS011;7218;51.480;7.006;2023-11-21T06:03:32;25.30;;;14.07;;
14268;SDS011;7218;51.480;7.006;2023-11-21T06:06:00;22.33;;;13.68;;
14268;SDS011;7218;51.480;7.006;2023-11-21T06:08:27;23.02;;;14.07;;
14268;SDS011;7218;51.480;7.006;2023-11-21T06:10:53;25.88;;;14.40;;
14268;SDS011;7218;51.480;7.006;2023-11-21T06:13:20;26.27;;;14.88;;
14268;SDS011;7218;51.480;7.006;2023-11-21T06:15:49;22.92;;;14.98;;
14268;SDS011;7218;51.480;7.006;2023-11-21T06:18:16;26.25;;;15.77;;
14268;SDS011;7218;51.480;7.006;2023-11-21T06:20:44;24.83;;;15.07;;
14268;SDS011;7218;51.480;7.006;2023-11-21T06:23:12;28.83;;;15.50;;
14268;SDS011;7218;51.480;7.006;2023-11-21T06:25:39;29.35;;;16.08;;
14268;SDS011;7218;51.480;7.006;2023-11-21T06:28:06;26.00;;;15.32;;
14268;SDS011;7218;51.480;7.006;2023-11-21T06:30:32;27.55;;;16.25;;
14268;SDS011;7218;51.480;7.006;2023-11-21T06:32:58;27.98;;;16.30;;
14268;SDS011;7218;51.480;7.006;2023-11-21T06:35:26;26.63;;;15.35;;
14268;SDS011;7218;51.480;7.006;2023-11-21T06:37:55;26.38;;;16.33;;
14268;SDS011;7218;51.480;7.006;2023-11-21T06:40:23;27.50;;;15.77;;
14268;SDS011;7218;51.480;7.006;2023-11-21T06:42:50;26.17;;;16.65;;
14268;SDS011;7218;51.480;7.006;2023-11-21T06:45:16;27.58;;;16.17;;
14268;SDS011;7218;51.480;7.006;2023-11-21T06:47:43;29.88;;;16.60;;
14268;SDS011;7218;51.480;7.006;2023-11-21T06:50:10;28.15;;;16.50;;
14268;SDS011;7218;51.480;7.006;2023-11-21T06:52:36;30.48;;;15.82;;
14268;SDS011;7218;51.480;7.006;2023-11-21T06:55:03;26.77;;;16.30;;
14268;SDS011;7218;51.480;7.006;2023-11-21T06:57:34;30.23;;;16.52;;
14268;SDS011;7218;51.480;7.006;2023-11-21T07:00:01;27.27;;;17.02;;
14268;SDS011;7218;51.480;7.006;2023-11-21T07:02:27;30.20;;;17.38;;
14268;SDS011;7218;51.480;7.006;2023-11-21T07:04:54;28.40;;;17.60;;
14268;SDS011;7218;51.480;7.006;2023-11-21T07:07:20;27.40;;;16.83;;
14268;SDS011;7218;51.480;7.006;2023-11-21T07:09:47;28.60;;;17.17;;
14268;SDS011;7218;51.480;7.006;2023-11-21T07:12:14;30.13;;;18.20;;
14268;SDS011;7218;51.480;7.006;2023-11-21T07:14:42;27.80;;;17.90;;
14268;SDS011;7218;51.480;7.006;2023-11-21T07:17:09;28.67;;;17.70;;
14268;SDS011;7218;51.480;7.006;2023-11-21T07:19:37;28.63;;;17.95;;
14268;SDS011;7218;51.480;7.006;2023-11-21T07:22:03;30.80;;;18.13;;
14268;SDS011;7218;51.480;7.006;2023-11-21T07:24:30;31.63;;;17.90;;
14268;SDS011;7218;51.480;7.006;2023-11-21T07:26:57;31.27;;;18.17;;
14268;SDS011;7218;51.480;7.006;2023-11-21T07:29:24;34.90;;;18.73;;
14268;SDS011;7218;51.480;7.006;2023-11-21T07:31:52;35.83;;;19.02;;
14268;SDS011;7218;51.480;7.006;2023-11-21T07:34:19;41.80;;;20.50;;
14268;SDS011;7218;51.480;7.006;2023-11-21T07:36:45;42.08;;;21.17;;
14268;SDS011;7218;51.480;7.006;2023-11-21T07:39:12;53.15;;;23.58;;
14268;SDS011;7218;51.480;7.006;2023-11-21T07:41:40;56.42;;;23.85;;
14268;SDS011;7218;51.480;7.006;2023-11-21T07:44:13;56.08;;;24.80;;
14268;SDS011;7218;51.480;7.006;2023-11-21T07:46:40;59.92;;;27.67;;
14268;SDS011;7218;51.480;7.006;2023-11-21T07:49:08;68.07;;;28.42;;
14268;SDS011;7218;51.480;7.006;2023-11-21T07:51:35;69.15;;;29.15;;
14268;SDS011;7218;51.480;7.006;2023-11-21T07:54:01;75.30;;;29.63;;
14268;SDS011;7218;51.480;7.006;2023-11-21T07:56:28;75.45;;;31.65;;
14268;SDS011;7218;51.480;7.006;2023-11-21T07:58:54;71.13;;;29.33;;
14268;SDS011;7218;51.480;7.006;2023-11-21T08:01:20;76.25;;;30.45;;
14268;SDS011;7218;51.480;7.006;2023-11-21T08:03:47;78.32;;;32.45;;
14268;SDS011;7218;51.480;7.006;2023-11-21T08:06:18;69.05;;;29.80;;
14268;SDS011;7218;51.480;7.006;2023-11-21T08:08:44;71.20;;;31.05;;
14268;SDS011;7218;51.480;7.006;2023-11-21T08:11:11;77.53;;;31.80;;
14268;SDS011;7218;51.480;7.006;2023-11-21T08:13:37;75.32;;;31.60;;
14268;SDS011;7218;51.480;7.006;2023-11-21T08:16:04;75.82;;;32.78;;
14268;SDS011;7218;51.480;7.006;2023-11-21T08:18:32;78.38;;;32.45;;
14268;SDS011;7218;51.480;7.006;2023-11-21T08:20:59;79.32;;;33.30;;
14268;SDS011;7218;51.480;7.006;2023-11-21T08:23:27;83.43;;;34.80;;
14268;SDS011;7218;51.480;7.006;2023-11-21T08:25:53;81.03;;;34.00;;
14268;SDS011;7218;51.480;7.006;2023-11-21T08:28:20;86.05;;;34.08;;
14268;SDS011;7218;51.480;7.006;2023-11-21T08:30:48;91.72;;;35.47;;
14268;SDS011;7218;51.480;7.006;2023-11-21T08:33:15;87.78;;;35.42;;
14268;SDS011;7218;51.480;7.006;2023-11-21T08:35:41;95.97;;;38.03;;
14268;SDS011;7218;51.480;7.006;2023-11-21T08:38:07;97.50;;;36.80;;
14268;SDS011;7218;51.480;7.006;2023-11-21T08:40:36;93.70;;;37.10;;
14268;SDS011;7218;51.480;7.006;2023-11-21T08:43:03;96.95;;;37.10;;
14268;SDS011;7218;51.480;7.006;2023-11-21T08:45:30;102.18;;;38.30;;
14268;SDS011;7218;51.480;7.006;2023-11-21T08:47:59;95.45;;;37.40;;
14268;SDS011;7218;51.480;7.006;2023-11-21T08:50:25;93.97;;;36.80;;
14268;SDS011;7218;51.480;7.006;2023-11-21T08:52:52;92.60;;;36.75;;
14268;SDS011;7218;51.480;7.006;2023-11-21T08:55:18;88.55;;;34.63;;
14268;SDS011;7218;51.480;7.006;2023-11-21T08:57:46;91.93;;;35.03;;
14268;SDS011;7218;51.480;7.006;2023-11-21T09:00:13;89.32;;;36.30;;
14268;SDS011;7218;51.480;7.006;2023-11-21T09:02:42;84.78;;;36.00;;
14268;SDS011;7218;51.480;7.006;2023-11-21T09:05:09;91.25;;;37.05;;
14268;SDS011;7218;51.480;7.006;2023-11-21T09:07:36;90.85;;;36.28;;
14268;SDS011;7218;51.480;7.006;2023-11-21T09:10:03;81.72;;;34.72;;
14268;SDS011;7218;51.480;7.006;2023-11-21T09:12:32;82.45;;;34.97;;
14268;SDS011;7218;51.480;7.006;2023-11-21T09:15:02;97.25;;;37.55;;
14268;SDS011;7218;51.480;7.006;2023-11-21T09:17:29;87.40;;;36.22;;
14268;SDS011;7218;51.480;7.006;2023-11-21T09:19:56;83.88;;;35.17;;
14268;SDS011;7218;51.480;7.006;2023-11-21T09:22:22;81.85;;;35.45;;
14268;SDS011;7218;51.480;7.006;2023-11-21T09:24:49;89.82;;;36.42;;
14268;SDS011;7218;51.480;7.006;2023-11-21T09:27:17;89.68;;;35.75;;
14268;SDS011;7218;51.480;7.006;2023-11-21T09:29:43;83.47;;;32.78;;
14268;SDS011;7218;51.480;7.006;2023-11-21T09:32:12;84.80;;;34.78;;
14268;SDS011;7218;51.480;7.006;2023-11-21T09:34:39;89.47;;;36.20;;
14268;SDS011;7218;51.480;7.006;2023-11-21T09:37:06;84.13;;;34.70;;
14268;SDS011;7218;51.480;7.006;2023-11-21T09:39:33;85.35;;;34.72;;
14268;SDS011;7218;51.480;7.006;2023-11-21T09:42:04;93.43;;;36.15;;
14268;SDS011;7218;51.480;7.006;2023-11-21T09:44:36;89.90;;;35.92;;
14268;SDS011;7218;51.480;7.006;2023-11-21T09:47:14;90.43;;;36.08;;
14268;SDS011;7218;51.480;7.006;2023-11-21T09:49:42;96.20;;;37.17;;
14268;SDS011;7218;51.480;7.006;2023-11-21T09:52:15;87.07;;;36.25;;
14268;SDS011;7218;51.480;7.006;2023-11-21T09:54:48;95.90;;;36.42;;
14268;SDS011;7218;51.480;7.006;2023-11-21T09:57:16;92.70;;;34.95;;
14268;SDS011;7218;51.480;7.006;2023-11-21T09:59:43;94.18;;;36.25;;
14268;SDS011;7218;51.480;7.006;2023-11-21T10:02:11;91.50;;;37.20;;
14268;SDS011;7218;51.480;7.006;2023-11-21T10:04:40;101.10;;;36.78;;
14268;SDS011;7218;51.480;7.006;2023-11-21T10:07:06;98.20;;;37.22;;
14268;SDS011;7218;51.480;7.006;2023-11-21T10:09:34;97.13;;;37.70;;
14268;SDS011;7218;51.480;7.006;2023-11-21T10:12:01;90.18;;;36.00;;
14268;SDS011;7218;51.480;7.006;2023-11-21T10:14:31;89.35;;;36.90;;
14268;SDS011;7218;51.480;7.006;2023-11-21T10:16:59;93.90;;;36.92;;
14268;SDS011;7218;51.480;7.006;2023-11-21T10:19:25;96.55;;;37.63;;
14268;SDS011;7218;51.480;7.006;2023-11-21T10:21:53;92.35;;;35.95;;
14268;SDS011;7218;51.480;7.006;2023-11-21T10:24:22;93.03;;;36.03;;
14268;SDS011;7218;51.480;7.006;2023-11-21T10:26:49;91.07;;;36.72;;
14268;SDS011;7218;51.480;7.006;2023-11-21T10:29:17;85.65;;;34.00;;
14268;SDS011;7218;51.480;7.006;2023-11-21T10:31:44;81.50;;;34.97;;
14268;SDS011;7218;51.480;7.006;2023-11-21T10:34:14;92.90;;;36.28;;
14268;SDS011;7218;51.480;7.006;2023-11-21T10:36:40;89.63;;;36.28;;
14268;SDS011;7218;51.480;7.006;2023-11-21T10:39:09;87.97;;;35.15;;
14268;SDS011;7218;51.480;7.006;2023-11-21T10:41:36;89.90;;;36.47;;
14268;SDS011;7218;51.480;7.006;2023-11-21T10:44:03;87.72;;;35.58;;
14268;SDS011;7218;51.480;7.006;2023-11-21T10:46:32;77.45;;;33.85;;
14268;SDS011;7218;51.480;7.006;2023-11-21T10:48:59;69.68;;;30.83;;
14268;SDS011;7218;51.480;7.006;2023-11-21T10:51:27;76.50;;;30.90;;
14268;SDS011;7218;51.480;7.006;2023-11-21T10:53:54;74.97;;;30.25;;
14268;SDS011;7218;51.480;7.006;2023-11-21T10:56:25;73.43;;;33.20;;
14268;SDS011;7218;51.480;7.006;2023-11-21T10:59:00;73.43;;;34.00;;
14268;SDS011;7218;51.480;7.006;2023-11-21T11:01:27;73.22;;;32.88;;
14268;SDS011;7218;51.480;7.006;2023-11-21T11:03:57;85.00;;;39.95;;
14268;SDS011;7218;51.480;7.006;2023-11-21T11:06:25;85.75;;;39.22;;
14268;SDS011;7218;51.480;7.006;2023-11-21T11:08:54;69.45;;;36.10;;
14268;SDS011;7218;51.480;7.006;2023-11-21T11:11:21;74.40;;;37.08;;
14268;SDS011;7218;51.480;7.006;2023-11-21T11:13:49;76.28;;;36.78;;
14268;SDS011;7218;51.480;7.006;2023-11-21T11:16:16;65.78;;;34.67;;
14268;SDS011;7218;51.480;7.006;2023-11-21T11:18:43;72.78;;;34.25;;
14268;SDS011;7218;51.480;7.006;2023-11-21T11:21:14;71.07;;;34.40;;
14268;SDS011;7218;51.480;7.006;2023-11-21T11:24:08;59.00;;;31.13;;
14268;SDS011;7218;51.480;7.006;2023-11-21T11:26:46;51.40;;;29.75;;
14268;SDS011;7218;51.480;7.006;2023-11-21T11:29:22;57.15;;;30.15;;
14268;SDS011;7218;51.480;7.006;2023-11-21T11:32:01;53.95;;;29.23;;
14268;SDS011;7218;51.480;7.006;2023-11-21T11:34:36;53.85;;;29.70;;
14268;SDS011;7218;51.480;7.006;2023-11-21T11:37:08;50.45;;;29.15;;
14268;SDS011;7218;51.480;7.006;2023-11-21T11:39:36;51.85;;;28.02;;
14268;SDS011;7218;51.480;7.006;2023-11-21T11:42:04;51.53;;;30.33;;
14268;SDS011;7218;51.480;7.006;2023-11-21T11:47:23;44.58;;;26.45;;
14268;SDS011;7218;51.480;7.006;2023-11-21T11:49:56;49.40;;;27.63;;
14268;SDS011;7218;51.480;7.006;2023-11-21T11:52:36;52.78;;;27.83;;
14268;SDS011;7218;51.480;7.006;2023-11-21T11:55:05;45.05;;;26.13;;
14268;SDS011;7218;51.480;7.006;2023-11-21T11:57:35;50.60;;;27.98;;
14268;SDS011;7218;51.480;7.006;2023-11-21T12:00:11;57.08;;;32.53;;
14268;SDS011;7218;51.480;7.006;2023-11-21T12:02:42;61.45;;;33.67;;
14268;SDS011;7218;51.480;7.006;2023-11-21T12:05:10;59.33;;;34.35;;
14268;SDS011;7218;51.480;7.006;2023-11-21T12:07:44;60.05;;;32.15;;
14268;SDS011;7218;51.480;7.006;2023-11-21T12:10:13;55.05;;;31.27;;
14268;SDS011;7218;51.480;7.006;2023-11-21T12:12:43;58.53;;;29.23;;
14268;SDS011;7218;51.480;7.006;2023-11-21T12:15:15;49.03;;;26.15;;
14268;SDS011;7218;51.480;7.006;2023-11-21T12:17:42;54.30;;;28.67;;
14268;SDS011;7218;51.480;7.006;2023-11-21T12:20:10;53.83;;;29.30;;
14268;SDS011;7218;51.480;7.006;2023-11-21T12:22:43;60.83;;;30.48;;
14268;SDS011;7218;51.480;7.006;2023-11-21T12:25:13;63.75;;;32.25;;
14268;SDS011;7218;51.480;7.006;2023-11-21T12:27:44;62.65;;;32.60;;
14268;SDS011;7218;51.480;7.006;2023-11-21T12:30:11;59.33;;;30.65;;
14268;SDS011;7218;51.480;7.006;2023-11-21T12:32:42;57.38;;;31.42;;
14268;SDS011;7218;51.480;7.006;2023-11-21T12:35:10;57.92;;;31.05;;
14268;SDS011;7218;51.480;7.006;2023-11-21T12:37:37;51.45;;;29.88;;
14268;SDS011;7218;51.480;7.006;2023-11-21T12:40:05;50.40;;;28.75;;
14268;SDS011;7218;51.480;7.006;2023-11-21T12:42:32;52.70;;;27.90;;
14268;SDS011;7218;51.480;7.006;2023-11-21T12:47:54;46.92;;;27.45;;
14268;SDS011;7218;51.480;7.006;2023-11-21T12:50:24;45.42;;;27.10;;
14268;SDS011;7218;51.480;7.006;2023-11-21T12:52:53;45.13;;;26.40;;
14268;SDS011;7218;51.480;7.006;2023-11-21T12:55:23;43.60;;;27.05;;
14268;SDS011;7218;51.480;7.006;2023-11-21T12:57:51;44.80;;;26.23;;
14268;SDS011;7218;51.480;7.006;2023-11-21T13:00:20;39.40;;;25.90;;
14268;SDS011;7218;51.480;7.006;2023-11-21T13:02:55;43.83;;;27.13;;
14268;SDS011;7218;51.480;7.006;2023-11-21T13:05:23;48.28;;;27.98;;
14268;SDS011;7218;51.480;7.006;2023-11-21T13:07:51;41.35;;;26.65;;
14268;SDS011;7218;51.480;7.006;2023-11-21T13:10:19;44.55;;;26.92;;
14268;SDS011;7218;51.480;7.006;2023-11-21T13:12:52;38.17;;;24.95;;
14268;SDS011;7218;51.480;7.006;2023-11-21T13:15:20;37.20;;;23.55;;
14268;SDS011;7218;51.480;7.006;2023-11-21T13:17:46;36.30;;;22.95;;
14268;SDS011;7218;51.480;7.006;2023-11-21T13:20:15;42.40;;;25.13;;
14268;SDS011;7218;51.480;7.006;2023-11-21T13:22:45;33.88;;;22.92;;
14268;SDS011;7218;51.480;7.006;2023-11-21T13:25:16;30.27;;;21.42;;
14268;SDS011;7218;51.480;7.006;2023-11-21T13:27:44;35.50;;;22.05;;
14268;SDS011;7218;51.480;7.006;2023-11-21T13:30:12;37.15;;;22.48;;
14268;SDS011;7218;51.480;7.006;2023-11-21T13:32:42;35.50;;;22.60;;
14268;SDS011;7218;51.480;7.006;2023-11-21T13:35:09;31.35;;;21.52;;
14268;SDS011;7218;51.480;7.006;2023-11-21T13:37:46;27.85;;;20.08;;
14268;SDS011;7218;51.480;7.006;2023-11-21T13:40:16;31.52;;;20.85;;
14268;SDS011;7218;51.480;7.006;2023-11-21T13:42:47;33.03;;;21.15;;
14268;SDS011;7218;51.480;7.006;2023-11-21T13:45:15;28.05;;;19.35;;
14268;SDS011;7218;51.480;7.006;2023-11-21T13:47:43;29.55;;;19.52;;
14268;SDS011;7218;51.480;7.006;2023-11-21T13:50:10;28.48;;;19.30;;
14268;SDS011;7218;51.480;7.006;2023-11-21T13:52:42;24.38;;;18.13;;
14268;SDS011;7218;51.480;7.006;2023-11-21T13:55:09;27.00;;;17.33;;
14268;SDS011;7218;51.480;7.006;2023-11-21T13:57:40;26.90;;;16.55;;
14268;SDS011;7218;51.480;7.006;2023-11-21T14:00:10;20.08;;;14.52;;
14268;SDS011;7218;51.480;7.006;2023-11-21T14:02:57;20.60;;;14.25;;
14268;SDS011;7218;51.480;7.006;2023-11-21T14:05:25;21.05;;;14.32;;
14268;SDS011;7218;51.480;7.006;2023-11-21T14:07:54;19.10;;;13.45;;
14268;SDS011;7218;51.480;7.006;2023-11-21T14:10:28;18.27;;;13.55;;
14268;SDS011;7218;51.480;7.006;2023-11-21T14:13:01;21.00;;;13.93;;
14268;SDS011;7218;51.480;7.006;2023-11-21T14:15:28;21.20;;;14.07;;
14268;SDS011;7218;51.480;7.006;2023-11-21T14:17:56;16.58;;;12.25;;
14268;SDS011;7218;51.480;7.006;2023-11-21T14:20:22;17.05;;;13.07;;
14268;SDS011;7218;51.480;7.006;2023-11-21T14:22:49;16.75;;;12.07;;
14268;SDS011;7218;51.480;7.006;2023-11-21T14:25:16;18.00;;;12.63;;
14268;SDS011;7218;51.480;7.006;2023-11-21T14:27:45;15.82;;;11.75;;
14268;SDS011;7218;51.480;7.006;2023-11-21T14:30:12;17.35;;;12.30;;
14268;SDS011;7218;51.480;7.006;2023-11-21T14:32:38;17.38;;;12.50;;
14268;SDS011;7218;51.480;7.006;2023-11-21T14:35:05;16.05;;;11.50;;
14268;SDS011;7218;51.480;7.006;2023-11-21T14:37:34;16.90;;;11.48;;
14268;SDS011;7218;51.480;7.006;2023-11-21T14:40:00;13.38;;;10.27;;
14268;SDS011;7218;51.480;7.006;2023-11-21T14:42:26;14.77;;;10.68;;
14268;SDS011;7218;51.480;7.006;2023-11-21T14:44:56;13.30;;;10.13;;
14268;SDS011;7218;51.480;7.006;2023-11-21T14:47:28;12.57;;;9.63;;